createdAt,value
2019-03-22T00:00:54.472Z,2.62
2019-03-22T00:03:26.715Z,3.10
2019-03-22T00:05:58.955Z,2.85
2019-03-22T00:08:31.227Z,3.25
2019-03-22T00:11:03.491Z,2.95
2019-03-22T00:13:35.760Z,2.98
2019-03-22T00:16:07.963Z,3.30
2019-03-22T00:18:40.207Z,2.95
2019-03-22T00:21:12.430Z,2.95
2019-03-22T00:23:44.675Z,2.77
2019-03-22T00:26:16.915Z,3.15
2019-03-22T00:28:49.181Z,2.85
2019-03-22T00:31:21.399Z,3.47
2019-03-22T00:33:53.633Z,3.60
2019-03-22T00:36:25.886Z,3.30
2019-03-22T00:38:58.157Z,3.50
2019-03-22T00:41:30.374Z,3.58
2019-03-22T00:44:02.638Z,3.52
2019-03-22T00:46:34.873Z,3.58
2019-03-22T00:49:07.127Z,3.87
2019-03-22T00:51:39.372Z,3.87
2019-03-22T00:54:11.602Z,3.70
2019-03-22T00:56:43.847Z,3.37
2019-03-22T00:59:16.107Z,3.80
2019-03-22T01:01:48.361Z,3.10
2019-03-22T01:04:20.600Z,3.70
2019-03-22T01:06:52.824Z,3.92
2019-03-22T01:09:25.071Z,3.50
2019-03-22T01:11:57.295Z,3.83
2019-03-22T01:14:29.546Z,3.30
2019-03-22T01:17:01.772Z,3.35
2019-03-22T01:19:34.023Z,3.65
2019-03-22T01:22:06.265Z,3.72
2019-03-22T01:24:38.517Z,3.40
2019-03-22T01:27:11.666Z,3.12
2019-03-22T01:29:43.923Z,3.40
2019-03-22T01:32:16.152Z,3.70
2019-03-22T01:34:48.405Z,3.10
2019-03-22T01:37:20.704Z,2.98
2019-03-22T01:39:52.941Z,3.47
2019-03-22T01:42:25.279Z,3.05
2019-03-22T01:44:58.095Z,3.12
2019-03-22T01:47:30.327Z,3.25
2019-03-22T01:50:02.631Z,3.20
2019-03-22T01:52:34.852Z,3.62
2019-03-22T01:55:07.193Z,2.90
2019-03-22T01:57:39.452Z,2.90
2019-03-22T02:00:12.646Z,3.60
2019-03-22T02:02:44.865Z,3.20
2019-03-22T02:05:18.275Z,3.37
2019-03-22T02:07:51.060Z,3.40
2019-03-22T02:10:23.323Z,3.30
2019-03-22T02:12:55.544Z,3.40
2019-03-22T02:15:27.774Z,3.77
2019-03-22T02:17:59.992Z,3.47
2019-03-22T02:20:32.230Z,3.92
2019-03-22T02:23:04.574Z,3.58
2019-03-22T02:25:36.824Z,3.58
2019-03-22T02:28:09.035Z,3.58
2019-03-22T02:30:41.287Z,3.60
2019-03-22T02:33:13.546Z,3.42
2019-03-22T02:35:45.811Z,3.65
2019-03-22T02:38:18.041Z,3.33
2019-03-22T02:40:50.280Z,3.72
2019-03-22T02:43:22.566Z,3.55
2019-03-22T02:45:54.829Z,3.45
2019-03-22T02:48:27.059Z,3.50
2019-03-22T02:50:59.351Z,3.52
2019-03-22T02:53:31.597Z,4.05
2019-03-22T02:56:03.952Z,3.75
2019-03-22T02:58:36.254Z,3.22
2019-03-22T03:01:08.508Z,4.12
2019-03-22T03:03:40.752Z,3.80
2019-03-22T03:06:13.002Z,3.83
2019-03-22T03:08:45.208Z,3.50
2019-03-22T03:11:17.460Z,4.10
2019-03-22T03:13:49.767Z,3.60
2019-03-22T03:16:22.102Z,3.25
2019-03-22T03:18:54.354Z,3.52
2019-03-22T03:21:26.612Z,3.75
2019-03-22T03:23:58.834Z,4.37
2019-03-22T03:26:31.073Z,4.10
2019-03-22T03:29:03.375Z,3.67
2019-03-22T03:31:35.816Z,3.42
2019-03-22T03:34:08.033Z,3.90
2019-03-22T03:36:40.285Z,4.03
2019-03-22T03:39:12.517Z,3.08
2019-03-22T03:41:44.768Z,3.27
2019-03-22T03:44:17.000Z,3.35
2019-03-22T03:46:49.250Z,3.20
2019-03-22T03:49:21.940Z,2.90
2019-03-22T03:51:54.183Z,3.00
2019-03-22T03:54:26.506Z,3.47
2019-03-22T03:56:58.761Z,2.80
2019-03-22T03:59:30.981Z,2.80
2019-03-22T04:02:03.425Z,2.60
2019-03-22T04:04:35.671Z,3.00
2019-03-22T04:07:07.950Z,3.15
2019-03-22T04:09:40.201Z,2.58
2019-03-22T04:12:12.455Z,2.92
2019-03-22T04:14:44.671Z,2.75
2019-03-22T04:17:16.916Z,2.65
2019-03-22T04:19:50.162Z,2.98
2019-03-22T04:22:22.460Z,2.80
2019-03-22T04:24:54.721Z,2.50
2019-03-22T04:27:27.124Z,2.98
2019-03-22T04:29:59.520Z,2.67
2019-03-22T04:32:31.883Z,2.80
2019-03-22T04:35:07.432Z,2.83
2019-03-22T04:37:39.713Z,2.92
2019-03-22T04:40:22.104Z,3.27
2019-03-22T04:42:54.565Z,2.90
2019-03-22T04:45:28.257Z,3.00
2019-03-22T04:48:07.987Z,3.40
2019-03-22T04:50:40.876Z,2.80
2019-03-22T04:53:14.675Z,3.30
2019-03-22T04:55:48.456Z,3.02
2019-03-22T04:58:21.707Z,3.02
2019-03-22T05:00:55.322Z,2.75
2019-03-22T05:03:27.949Z,2.92
2019-03-22T05:06:01.388Z,2.85
2019-03-22T05:08:35.259Z,2.90
2019-03-22T05:11:08.576Z,2.80
2019-03-22T05:13:42.716Z,3.12
2019-03-22T05:16:16.126Z,2.87
2019-03-22T05:18:48.871Z,3.00
2019-03-22T05:21:22.663Z,3.05
2019-03-22T05:23:55.645Z,3.35
2019-03-22T05:26:30.558Z,2.95
2019-03-22T05:29:03.167Z,3.67
2019-03-22T05:31:42.746Z,3.20
2019-03-22T05:34:15.023Z,2.77
2019-03-22T05:36:47.346Z,3.08
2019-03-22T05:39:19.626Z,3.25
2019-03-22T05:41:52.003Z,2.92
2019-03-22T05:44:24.271Z,2.60
2019-03-22T05:46:56.524Z,2.72
2019-03-22T05:49:28.953Z,2.95
2019-03-22T05:52:01.384Z,2.90
2019-03-22T05:54:33.645Z,3.00
2019-03-22T05:57:13.138Z,3.50
2019-03-22T05:59:42.795Z,3.17
2019-03-22T06:02:13.955Z,3.20
2019-03-22T06:04:46.233Z,3.33
2019-03-22T06:07:18.549Z,2.62
2019-03-22T06:09:50.785Z,2.80
2019-03-22T06:12:23.039Z,2.77
2019-03-22T06:14:55.691Z,2.92
2019-03-22T06:17:27.959Z,3.58
2019-03-22T06:20:00.507Z,3.65
2019-03-22T06:22:32.818Z,3.75
2019-03-22T06:25:06.057Z,3.52
2019-03-22T06:27:38.335Z,4.00
2019-03-22T06:30:10.854Z,4.30
2019-03-22T06:32:43.073Z,4.50
2019-03-22T06:35:15.400Z,4.67
2019-03-22T06:37:47.704Z,5.03
2019-03-22T06:40:20.115Z,4.83
2019-03-22T06:42:52.515Z,5.15
2019-03-22T06:45:24.787Z,4.25
2019-03-22T06:47:57.024Z,5.40
2019-03-22T06:50:29.305Z,5.45
2019-03-22T06:53:01.527Z,3.80
2019-03-22T06:55:33.799Z,5.03
2019-03-22T06:58:06.098Z,4.90
2019-03-22T07:00:38.425Z,5.33
2019-03-22T07:03:11.561Z,4.58
2019-03-22T07:05:43.815Z,4.53
2019-03-22T07:08:16.058Z,3.72
2019-03-22T07:10:48.321Z,3.83
2019-03-22T07:13:20.634Z,3.42
2019-03-22T07:15:52.927Z,3.52
2019-03-22T07:18:25.248Z,4.37
2019-03-22T07:20:57.494Z,4.17
2019-03-22T07:23:29.750Z,4.15
2019-03-22T07:26:02.286Z,3.50
2019-03-22T07:28:35.463Z,4.10
2019-03-22T07:31:07.843Z,3.85
2019-03-22T07:33:40.075Z,3.72
2019-03-22T07:36:12.358Z,3.37
2019-03-22T07:38:44.623Z,4.05
2019-03-22T07:41:16.894Z,3.60
2019-03-22T07:43:49.148Z,4.62
2019-03-22T07:46:21.672Z,4.22
2019-03-22T07:48:53.937Z,5.08
2019-03-22T07:51:26.252Z,4.92
2019-03-22T07:53:58.567Z,5.28
2019-03-22T07:56:30.857Z,4.40
2019-03-22T07:59:03.115Z,5.30
2019-03-22T08:01:35.403Z,5.28
2019-03-22T08:04:07.774Z,4.65
2019-03-22T08:06:40.040Z,4.62
2019-03-22T08:09:12.264Z,4.85
2019-03-22T08:11:44.698Z,5.20
2019-03-22T08:14:17.031Z,4.67
2019-03-22T08:16:49.344Z,5.03
2019-03-22T08:19:21.656Z,5.47
2019-03-22T08:21:54.014Z,5.12
2019-03-22T08:24:26.240Z,5.00
2019-03-22T08:26:58.536Z,4.45
2019-03-22T08:29:30.830Z,4.87
2019-03-22T08:32:03.217Z,5.05
2019-03-22T08:34:35.494Z,4.55
2019-03-22T08:37:07.932Z,5.12
2019-03-22T08:39:40.284Z,4.50
2019-03-22T08:42:12.542Z,4.42
2019-03-22T08:44:44.802Z,4.10
2019-03-22T08:47:17.060Z,4.03
2019-03-22T08:49:49.400Z,5.10
2019-03-22T08:52:21.783Z,4.72
2019-03-22T08:54:54.062Z,4.22
2019-03-22T08:57:26.457Z,5.30
2019-03-22T08:59:58.719Z,4.70
2019-03-22T09:02:30.976Z,4.80
2019-03-22T09:05:04.270Z,5.28
2019-03-22T09:07:36.674Z,4.42
2019-03-22T09:10:10.375Z,4.47
2019-03-22T09:12:42.677Z,4.45
2019-03-22T09:15:15.015Z,4.28
2019-03-22T09:17:47.357Z,4.95
2019-03-22T09:20:19.668Z,4.12
2019-03-22T09:22:51.958Z,4.00
2019-03-22T09:25:24.358Z,4.53
2019-03-22T09:27:56.612Z,3.60
2019-03-22T09:30:28.912Z,4.53
2019-03-22T09:33:01.252Z,4.75
2019-03-22T09:35:33.840Z,4.53
2019-03-22T09:38:12.779Z,3.90
2019-03-22T09:40:40.048Z,5.67
2019-03-22T09:43:12.300Z,5.42
2019-03-22T09:45:44.581Z,3.77
2019-03-22T09:48:16.965Z,3.95
2019-03-22T09:50:49.226Z,4.80
2019-03-22T09:53:21.512Z,3.95
2019-03-22T09:55:53.804Z,4.25
2019-03-22T09:58:26.126Z,4.15
2019-03-22T10:00:58.666Z,3.72
2019-03-22T10:03:30.963Z,3.20
2019-03-22T10:06:03.238Z,3.60
2019-03-22T10:08:35.647Z,4.30
2019-03-22T10:11:07.956Z,4.40
2019-03-22T10:13:40.238Z,4.10
2019-03-22T10:16:12.542Z,4.00
2019-03-22T10:18:44.912Z,3.02
2019-03-22T10:21:22.254Z,3.47
2019-03-22T10:23:51.202Z,3.75
2019-03-22T10:26:23.620Z,4.00
2019-03-22T10:28:56.018Z,4.65
2019-03-22T10:31:37.254Z,4.92
2019-03-22T10:34:02.343Z,3.52
2019-03-22T10:36:34.750Z,3.70
2019-03-22T10:39:07.746Z,3.27
2019-03-22T10:41:40.125Z,3.92
2019-03-22T10:44:12.498Z,3.52
2019-03-22T10:46:44.857Z,3.65
2019-03-22T10:49:17.210Z,4.20
2019-03-22T10:54:23.643Z,3.25
2019-03-22T10:56:55.929Z,3.50
2019-03-22T10:59:28.172Z,3.92
2019-03-22T11:02:03.735Z,3.40
2019-03-22T11:04:34.452Z,4.05
2019-03-22T11:07:06.781Z,3.80
2019-03-22T11:09:39.161Z,3.50
2019-03-22T11:12:12.512Z,3.47
2019-03-22T11:14:45.843Z,3.02
2019-03-22T11:17:18.143Z,3.22
2019-03-22T11:19:50.465Z,2.85
2019-03-22T11:22:22.706Z,3.47
2019-03-22T11:24:54.966Z,3.95
2019-03-22T11:27:27.170Z,4.45
2019-03-22T11:29:59.742Z,4.50
2019-03-22T11:32:33.488Z,3.27
2019-03-22T11:35:06.486Z,3.15
2019-03-22T11:37:38.801Z,3.77
2019-03-22T11:40:14.730Z,3.08
2019-03-22T11:42:46.958Z,3.33
2019-03-22T11:45:20.787Z,3.00
2019-03-22T11:47:53.028Z,4.22
2019-03-22T11:50:25.312Z,3.70
2019-03-22T11:52:57.564Z,3.50
2019-03-22T11:55:29.794Z,3.47
2019-03-22T11:58:02.103Z,3.92
2019-03-22T12:00:34.414Z,3.33
2019-03-22T12:03:06.635Z,3.05
2019-03-22T12:05:40.552Z,3.30
2019-03-22T12:08:13.010Z,4.00
2019-03-22T12:10:45.270Z,3.12
2019-03-22T12:13:17.706Z,3.83
2019-03-22T12:15:50.055Z,3.85
2019-03-22T12:18:22.311Z,3.25
2019-03-22T12:20:56.548Z,3.15
2019-03-22T12:23:29.265Z,4.12
2019-03-22T12:26:01.508Z,3.52
2019-03-22T12:28:33.789Z,3.75
2019-03-22T12:31:06.203Z,2.75
2019-03-22T12:33:38.507Z,3.37
2019-03-22T12:36:10.789Z,3.08
2019-03-22T12:38:43.064Z,3.30
2019-03-22T12:41:15.366Z,3.25
2019-03-22T12:43:47.603Z,3.37
2019-03-22T12:46:19.980Z,3.25
2019-03-22T12:48:53.177Z,4.05
2019-03-22T12:51:25.452Z,3.20
2019-03-22T12:53:57.736Z,3.15
2019-03-22T12:56:30.042Z,3.45
2019-03-22T12:59:02.291Z,3.47
2019-03-22T13:01:34.779Z,3.75
2019-03-22T13:04:07.139Z,4.10
2019-03-22T13:06:39.418Z,2.87
2019-03-22T13:09:11.677Z,3.42
2019-03-22T13:11:43.996Z,3.20
2019-03-22T13:14:16.268Z,3.52
2019-03-22T13:16:48.653Z,3.25
2019-03-22T13:19:20.943Z,3.12
2019-03-22T13:21:53.314Z,3.50
2019-03-22T13:24:25.559Z,3.42
2019-03-22T13:26:57.921Z,3.37
2019-03-22T13:29:30.251Z,2.75
2019-03-22T13:32:02.899Z,3.17
2019-03-22T13:34:35.662Z,2.92
2019-03-22T13:37:07.937Z,3.25
2019-03-22T13:39:40.267Z,2.65
2019-03-22T13:42:12.538Z,2.95
2019-03-22T13:44:44.796Z,2.55
2019-03-22T13:47:17.199Z,2.25
2019-03-22T13:49:49.440Z,2.50
2019-03-22T13:52:21.758Z,2.25
2019-03-22T13:54:54.028Z,2.33
2019-03-22T13:57:26.279Z,2.60
2019-03-22T13:59:58.537Z,2.85
2019-03-22T14:02:30.872Z,2.80
2019-03-22T14:05:04.011Z,2.42
2019-03-22T14:07:36.334Z,2.60
2019-03-22T14:10:26.550Z,2.50
2019-03-22T14:12:59.438Z,2.20
2019-03-22T14:15:31.843Z,2.60
2019-03-22T14:18:04.714Z,2.60
2019-03-22T14:20:36.963Z,2.40
2019-03-22T14:23:09.286Z,2.55
2019-03-22T14:25:41.616Z,1.98
2019-03-22T14:28:13.922Z,2.35
2019-03-22T14:30:46.171Z,2.58
2019-03-22T14:33:18.516Z,2.15
2019-03-22T14:35:50.828Z,2.70
2019-03-22T14:38:23.104Z,2.50
2019-03-22T14:40:55.391Z,2.35
2019-03-22T14:43:27.632Z,2.87
2019-03-22T14:45:59.899Z,2.85
2019-03-22T14:48:32.211Z,2.42
2019-03-22T14:51:04.474Z,2.60
2019-03-22T14:53:36.739Z,2.40
2019-03-22T14:56:09.032Z,2.50
2019-03-22T14:58:41.475Z,2.80
2019-03-22T15:01:13.723Z,2.60
2019-03-22T15:03:45.992Z,2.62
2019-03-22T15:06:18.256Z,2.50
2019-03-22T15:08:50.528Z,2.47
2019-03-22T15:11:22.851Z,2.30
2019-03-22T15:13:56.754Z,2.52
2019-03-22T15:16:39.537Z,2.55
2019-03-22T15:19:29.638Z,2.22
2019-03-22T15:22:19.634Z,2.17
2019-03-22T15:25:05.429Z,3.00
2019-03-22T15:27:55.772Z,2.62
2019-03-22T15:33:21.134Z,2.33
2019-03-22T15:35:55.113Z,2.47
2019-03-22T15:38:45.206Z,2.40
2019-03-22T15:41:17.597Z,2.47
2019-03-22T15:43:49.856Z,2.85
2019-03-22T15:46:22.135Z,2.33
2019-03-22T15:48:54.402Z,2.60
2019-03-22T15:51:26.916Z,3.00
2019-03-22T15:53:59.201Z,2.40
2019-03-22T15:56:31.444Z,2.75
2019-03-22T15:59:03.697Z,2.20
2019-03-22T16:01:36.259Z,2.10
2019-03-22T16:04:08.498Z,2.90
2019-03-22T16:06:40.753Z,2.50
2019-03-22T16:09:13.495Z,2.35
2019-03-22T16:11:45.757Z,2.75
2019-03-22T16:14:18.079Z,2.72
2019-03-22T16:16:50.336Z,3.30
2019-03-22T16:19:22.670Z,2.72
2019-03-22T16:21:54.896Z,2.17
2019-03-22T16:24:27.208Z,2.50
2019-03-22T16:26:59.621Z,2.70
2019-03-22T16:29:31.925Z,2.62
2019-03-22T16:32:04.324Z,2.77
2019-03-22T16:34:36.611Z,2.83
2019-03-22T16:37:08.973Z,2.60
2019-03-22T16:39:41.252Z,2.98
2019-03-22T16:42:13.507Z,2.65
2019-03-22T16:44:45.783Z,2.62
2019-03-22T16:47:18.027Z,2.50
2019-03-22T16:49:50.253Z,2.58
2019-03-22T16:52:22.834Z,2.72
2019-03-22T16:54:55.155Z,3.02
2019-03-22T16:57:27.503Z,3.35
2019-03-22T16:59:59.787Z,2.65
2019-03-22T17:02:32.152Z,2.95
2019-03-22T17:05:06.630Z,2.67
2019-03-22T17:07:39.030Z,2.95
2019-03-22T17:10:11.626Z,2.98
2019-03-22T17:12:44.041Z,2.65
2019-03-22T17:15:16.320Z,2.45
2019-03-22T17:17:49.324Z,2.55
2019-03-22T17:20:21.812Z,2.75
2019-03-22T17:22:54.089Z,3.05
2019-03-22T17:25:26.291Z,2.15
2019-03-22T17:27:58.583Z,2.08
2019-03-22T17:30:30.848Z,2.12
2019-03-22T17:33:03.115Z,2.45
2019-03-22T17:35:35.366Z,2.98
2019-03-22T17:38:07.819Z,2.17
2019-03-22T17:40:40.056Z,2.42
2019-03-22T17:43:13.140Z,2.80
2019-03-22T17:45:45.390Z,1.60
2019-03-22T17:48:17.678Z,2.30
2019-03-22T17:50:51.462Z,1.90
2019-03-22T17:53:23.944Z,2.02
2019-03-22T17:55:56.202Z,1.90
2019-03-22T17:58:28.555Z,1.90
2019-03-22T18:01:00.829Z,1.77
2019-03-22T18:03:33.245Z,1.52
2019-03-22T18:06:05.493Z,1.75
2019-03-22T18:08:37.750Z,1.65
2019-03-22T18:11:10.936Z,1.57
2019-03-22T18:13:43.228Z,1.45
2019-03-22T18:16:15.462Z,1.98
2019-03-22T18:18:48.650Z,1.95
2019-03-22T18:21:20.894Z,1.72
2019-03-22T18:23:53.173Z,1.60
2019-03-22T18:26:25.516Z,1.50
2019-03-22T18:28:57.757Z,1.80
2019-03-22T18:31:30.020Z,1.40
2019-03-22T18:34:02.328Z,1.62
2019-03-22T18:36:34.551Z,1.60
2019-03-22T18:39:07.565Z,1.42
2019-03-22T18:41:39.817Z,1.55
2019-03-22T18:44:12.134Z,1.85
2019-03-22T18:46:44.433Z,1.47
2019-03-22T18:49:16.712Z,1.72
2019-03-22T18:51:48.941Z,1.80
2019-03-22T18:54:21.175Z,1.70
2019-03-22T18:56:53.404Z,1.80
2019-03-22T18:59:25.641Z,2.02
2019-03-22T19:01:57.861Z,1.72
2019-03-22T19:04:30.385Z,1.82
2019-03-22T19:07:02.611Z,1.70
2019-03-22T19:09:35.045Z,1.90
2019-03-22T19:12:07.338Z,1.85
2019-03-22T19:14:39.585Z,1.90
2019-03-22T19:17:11.831Z,2.15
2019-03-22T19:19:44.043Z,1.90
2019-03-22T19:22:16.285Z,1.80
2019-03-22T19:24:48.522Z,1.77
2019-03-22T19:27:20.808Z,2.15
2019-03-22T19:29:53.100Z,2.10
2019-03-22T19:32:25.321Z,1.77
2019-03-22T19:34:57.588Z,1.90
2019-03-22T19:37:29.827Z,1.90
2019-03-22T19:40:02.296Z,1.92
2019-03-22T19:42:34.606Z,1.42
2019-03-22T19:45:07.847Z,1.95
2019-03-22T19:47:40.401Z,1.87
2019-03-22T19:50:13.579Z,1.67
2019-03-22T19:52:45.863Z,2.27
2019-03-22T19:55:18.163Z,2.40
2019-03-22T19:57:51.116Z,1.90
2019-03-22T20:00:24.625Z,2.20
2019-03-22T20:02:56.943Z,2.05
2019-03-22T20:05:32.632Z,1.98
2019-03-22T20:08:04.863Z,2.67
2019-03-22T20:10:37.107Z,2.12
2019-03-22T20:13:09.346Z,2.37
2019-03-22T20:15:41.579Z,2.52
2019-03-22T20:18:13.829Z,2.05
2019-03-22T20:20:46.117Z,2.08
2019-03-22T20:23:18.347Z,3.08
2019-03-22T20:25:53.630Z,2.30
2019-03-22T20:28:25.859Z,2.35
2019-03-22T20:30:59.124Z,2.15
2019-03-22T20:33:31.954Z,2.62
2019-03-22T20:36:04.440Z,2.65
2019-03-22T20:38:36.711Z,2.27
2019-03-22T20:41:09.021Z,2.87
2019-03-22T20:43:41.638Z,3.25
2019-03-22T20:46:14.278Z,2.90
2019-03-22T20:48:46.527Z,2.90
2019-03-22T20:51:18.836Z,3.17
2019-03-22T20:53:51.073Z,3.10
2019-03-22T20:56:24.238Z,3.10
2019-03-22T20:58:56.455Z,3.20
2019-03-22T21:01:28.693Z,3.70
2019-03-22T21:04:00.910Z,3.02
2019-03-22T21:06:33.912Z,3.22
2019-03-22T21:09:07.235Z,3.33
2019-03-22T21:11:40.791Z,3.02
2019-03-22T21:14:13.302Z,3.67
2019-03-22T21:16:45.635Z,3.65
2019-03-22T21:19:18.009Z,3.58
2019-03-22T21:21:50.245Z,2.98
2019-03-22T21:24:22.886Z,2.62
2019-03-22T21:26:55.323Z,2.77
2019-03-22T21:29:27.631Z,3.02
2019-03-22T21:32:00.012Z,3.02
2019-03-22T21:34:33.245Z,3.35
2019-03-22T21:37:05.468Z,3.30
2019-03-22T21:39:38.030Z,3.65
2019-03-22T21:42:10.285Z,3.65
2019-03-22T21:44:43.505Z,6.05
2019-03-22T21:47:15.799Z,6.72
2019-03-22T21:49:48.342Z,5.25
2019-03-22T21:52:20.590Z,4.85
2019-03-22T21:54:53.705Z,5.08
2019-03-22T21:57:25.963Z,4.97
2019-03-22T21:59:58.484Z,4.22
2019-03-22T22:02:30.843Z,3.92
2019-03-22T22:05:04.082Z,4.92
2019-03-22T22:07:37.869Z,4.47
2019-03-22T22:10:10.619Z,4.33
2019-03-22T22:12:42.883Z,4.47
2019-03-22T22:15:15.153Z,4.83
2019-03-22T22:17:47.407Z,4.33
2019-03-22T22:20:28.560Z,3.75
2019-03-22T22:22:53.583Z,4.12
2019-03-22T22:25:25.840Z,4.60
2019-03-22T22:27:58.099Z,4.42
2019-03-22T22:30:30.531Z,4.55
2019-03-22T22:33:02.827Z,4.97
2019-03-22T22:35:35.152Z,4.90
2019-03-22T22:38:07.659Z,4.30
2019-03-22T22:40:40.029Z,4.72
2019-03-22T22:43:12.297Z,4.53
2019-03-22T22:45:44.757Z,3.77
2019-03-22T22:48:17.045Z,4.70
2019-03-22T22:50:49.467Z,4.50
2019-03-22T22:53:21.700Z,4.35
2019-03-22T22:55:53.955Z,4.50
2019-03-22T22:58:26.298Z,4.10
2019-03-22T23:00:58.617Z,4.03
2019-03-22T23:03:31.931Z,4.53
2019-03-22T23:06:09.758Z,4.72
2019-03-22T23:08:39.596Z,3.98
2019-03-22T23:11:12.398Z,3.87
2019-03-22T23:13:45.596Z,3.70
2019-03-22T23:16:17.835Z,3.60
2019-03-22T23:18:50.073Z,3.72
2019-03-22T23:21:23.243Z,4.97
2019-03-22T23:23:55.470Z,4.42
2019-03-22T23:26:27.740Z,5.30
2019-03-22T23:29:00.000Z,5.15
2019-03-22T23:31:32.257Z,5.00
2019-03-22T23:34:04.527Z,5.45
2019-03-22T23:39:50.775Z,10.75
2019-03-22T23:42:23.105Z,5.50
2019-03-22T23:44:55.315Z,5.12
2019-03-22T23:47:27.562Z,4.65
2019-03-22T23:49:59.829Z,4.92
2019-03-22T23:52:32.143Z,5.30
2019-03-22T23:55:05.074Z,4.90
2019-03-22T23:57:37.305Z,4.87
